createdAt,value
2022-12-25T00:01:38.880Z,3.33
2022-12-25T00:04:10.952Z,4.60
2022-12-25T00:06:40.901Z,3.70
2022-12-25T00:09:09.949Z,3.70
2022-12-25T00:11:41.014Z,4.50
2022-12-25T00:14:12.444Z,4.43
2022-12-25T00:16:40.604Z,3.90
2022-12-25T00:19:12.923Z,3.80
2022-12-25T00:21:40.933Z,4.77
2022-12-25T00:24:11.621Z,4.30
2022-12-25T00:26:40.211Z,4.80
2022-12-25T00:29:13.376Z,3.33
2022-12-25T00:31:41.485Z,4.70
2022-12-25T00:34:11.685Z,4.13
2022-12-25T00:36:42.170Z,5.93
2022-12-25T00:39:11.025Z,3.80
2022-12-25T00:42:00.218Z,4.00
2022-12-25T00:44:36.223Z,3.47
2022-12-25T00:47:06.207Z,2.90
2022-12-25T00:49:38.163Z,4.00
2022-12-25T00:52:09.341Z,3.97
2022-12-25T00:54:38.103Z,3.70
2022-12-25T00:57:09.928Z,3.57
2022-12-25T00:59:38.111Z,3.60
2022-12-25T01:02:25.037Z,3.53
2022-12-25T01:05:05.484Z,3.80
2022-12-25T01:07:35.014Z,3.63
2022-12-25T01:10:22.442Z,2.13
2022-12-25T01:12:54.797Z,3.57
2022-12-25T01:15:23.310Z,2.37
2022-12-25T01:17:51.411Z,3.00
2022-12-25T01:20:28.686Z,2.63
2022-12-25T01:23:04.003Z,2.90
2022-12-25T01:25:34.786Z,3.10
2022-12-25T01:28:04.163Z,2.83
2022-12-25T01:30:32.575Z,3.53
2022-12-25T01:33:00.852Z,2.60
2022-12-25T01:35:32.697Z,2.57
2022-12-25T01:38:03.032Z,2.90
2022-12-25T01:40:35.118Z,2.80
2022-12-25T01:43:03.364Z,2.80
2022-12-25T01:45:41.842Z,2.50
2022-12-25T01:48:15.553Z,2.23
2022-12-25T01:50:50.736Z,1.80
2022-12-25T01:53:19.723Z,2.30
2022-12-25T01:55:50.958Z,2.33
2022-12-25T01:58:22.100Z,2.50
2022-12-25T02:00:54.831Z,2.80
2022-12-25T02:03:23.541Z,2.40
2022-12-25T02:05:54.616Z,2.60
2022-12-25T02:08:24.253Z,2.63
2022-12-25T02:11:00.312Z,2.43
2022-12-25T02:13:31.828Z,2.67
2022-12-25T02:16:13.450Z,2.17
2022-12-25T02:18:47.491Z,2.40
2022-12-25T02:21:37.594Z,2.60
2022-12-25T02:24:45.739Z,2.67
2022-12-25T02:27:37.792Z,2.47
2022-12-25T02:30:10.868Z,2.33
2022-12-25T02:32:46.905Z,2.30
2022-12-25T02:35:18.213Z,1.80
2022-12-25T02:37:56.036Z,1.70
2022-12-25T02:40:36.177Z,2.30
2022-12-25T02:43:25.969Z,2.33
2022-12-25T02:46:17.893Z,2.27
2022-12-25T02:49:10.279Z,2.27
2022-12-25T02:51:59.714Z,2.07
2022-12-25T02:54:50.574Z,2.10
2022-12-25T02:57:46.368Z,2.27
2022-12-25T03:00:34.171Z,2.30
2022-12-25T03:03:28.518Z,2.30
2022-12-25T03:06:20.479Z,2.40
2022-12-25T03:08:52.875Z,1.80
2022-12-25T03:11:35.991Z,1.83
2022-12-25T03:14:20.502Z,2.00
2022-12-25T03:16:56.524Z,1.70
2022-12-25T03:20:02.234Z,1.77
2022-12-25T03:22:50.663Z,2.00
2022-12-25T03:25:40.955Z,2.50
2022-12-25T03:28:09.860Z,2.10
2022-12-25T03:31:02.090Z,1.93
2022-12-25T03:33:45.850Z,2.43
2022-12-25T03:36:21.619Z,1.90
2022-12-25T03:39:19.529Z,2.23
2022-12-25T03:42:12.366Z,1.97
2022-12-25T03:45:11.135Z,2.40
2022-12-25T03:48:00.020Z,2.50
2022-12-25T03:50:52.032Z,2.57
2022-12-25T03:53:45.831Z,1.80
2022-12-25T03:56:36.652Z,1.70
2022-12-25T03:59:24.994Z,2.90
2022-12-25T04:02:11.410Z,2.17
2022-12-25T04:04:59.473Z,2.07
2022-12-25T04:07:46.207Z,2.50
2022-12-25T04:10:33.834Z,2.10
2022-12-25T04:13:20.126Z,1.97
2022-12-25T04:16:05.715Z,2.57
2022-12-25T04:18:56.000Z,2.20
2022-12-25T04:21:44.265Z,2.10
2022-12-25T04:24:31.573Z,2.37
2022-12-25T04:27:20.966Z,2.13
2022-12-25T04:30:06.673Z,2.57
2022-12-25T04:32:52.432Z,1.87
2022-12-25T04:35:38.786Z,1.67
2022-12-25T04:38:14.349Z,1.80
2022-12-25T04:40:43.277Z,2.00
2022-12-25T04:43:32.499Z,1.80
2022-12-25T04:46:03.148Z,2.13
2022-12-25T04:48:33.473Z,2.00
2022-12-25T04:51:12.428Z,2.07
2022-12-25T04:53:42.947Z,2.10
2022-12-25T04:56:11.967Z,2.57
2022-12-25T04:58:44.163Z,2.10
2022-12-25T05:01:13.037Z,2.00
2022-12-25T05:03:41.894Z,2.40
2022-12-25T05:08:53.112Z,1.73
2022-12-25T05:11:23.964Z,2.70
2022-12-25T05:13:53.383Z,2.47
2022-12-25T05:16:22.128Z,1.90
2022-12-25T05:18:53.744Z,2.13
2022-12-25T05:21:22.194Z,3.00
2022-12-25T05:23:51.765Z,2.53
2022-12-25T05:26:22.945Z,2.53
2022-12-25T05:28:55.042Z,2.57
2022-12-25T05:31:32.391Z,2.40
2022-12-25T05:34:00.553Z,2.50
2022-12-25T05:36:30.955Z,2.40
2022-12-25T05:39:02.352Z,1.83
2022-12-25T05:41:34.220Z,1.93
2022-12-25T05:44:05.529Z,2.50
2022-12-25T05:46:33.708Z,1.80
2022-12-25T05:49:02.620Z,2.63
2022-12-25T05:51:33.071Z,1.97
2022-12-25T05:54:01.289Z,2.57
2022-12-25T05:56:29.341Z,2.23
2022-12-25T05:59:05.390Z,2.63
2022-12-25T06:01:35.878Z,2.50
2022-12-25T06:04:11.894Z,2.17
2022-12-25T06:06:49.016Z,2.47
2022-12-25T06:09:19.894Z,2.40
2022-12-25T06:11:48.655Z,1.67
2022-12-25T06:14:24.119Z,2.50
2022-12-25T06:16:52.917Z,1.83
2022-12-25T06:19:21.193Z,2.00
2022-12-25T06:21:49.666Z,1.80
2022-12-25T06:24:21.555Z,1.63
2022-12-25T06:26:50.928Z,2.53
2022-12-25T06:29:20.440Z,2.50
2022-12-25T06:31:59.401Z,2.07
2022-12-25T06:34:27.896Z,2.53
2022-12-25T06:36:56.000Z,1.67
2022-12-25T06:39:25.798Z,2.30
2022-12-25T06:41:53.778Z,2.33
2022-12-25T06:44:26.870Z,2.00
2022-12-25T06:46:55.665Z,2.03
2022-12-25T06:49:27.725Z,1.43
2022-12-25T06:51:55.799Z,3.37
2022-12-25T06:54:24.632Z,2.30
2022-12-25T06:56:53.274Z,1.60
2022-12-25T06:59:21.748Z,2.33
2022-12-25T07:01:54.462Z,1.60
2022-12-25T07:04:27.963Z,1.87
2022-12-25T07:06:57.182Z,2.13
2022-12-25T07:09:25.207Z,2.40
2022-12-25T07:11:55.160Z,1.77
2022-12-25T07:14:38.801Z,1.57
2022-12-25T07:17:08.477Z,1.70
2022-12-25T07:19:42.680Z,2.37
2022-12-25T07:22:13.310Z,2.20
2022-12-25T07:24:41.345Z,1.87
2022-12-25T07:27:19.115Z,2.10
2022-12-25T07:29:47.507Z,2.00
2022-12-25T07:32:18.597Z,1.80
2022-12-25T07:35:00.934Z,2.00
2022-12-25T07:37:30.382Z,2.47
2022-12-25T07:40:00.700Z,4.50
2022-12-25T07:42:29.134Z,2.70
2022-12-25T07:44:57.725Z,2.60
2022-12-25T07:47:29.629Z,2.30
2022-12-25T07:50:02.811Z,1.83
2022-12-25T07:52:36.675Z,2.63
2022-12-25T07:55:13.172Z,1.80
2022-12-25T07:57:42.256Z,2.10
2022-12-25T08:00:11.761Z,2.13
2022-12-25T08:02:41.405Z,3.10
2022-12-25T08:05:11.230Z,2.30
2022-12-25T08:07:39.261Z,2.53
2022-12-25T08:10:08.824Z,2.20
2022-12-25T08:12:36.848Z,2.00
2022-12-25T08:15:05.769Z,1.93
2022-12-25T08:17:36.569Z,2.50
2022-12-25T08:20:07.436Z,1.90
2022-12-25T08:22:36.758Z,1.90
2022-12-25T08:25:05.335Z,2.17
2022-12-25T08:27:35.247Z,2.27
2022-12-25T08:30:03.849Z,2.43
2022-12-25T08:32:36.248Z,1.97
2022-12-25T08:35:09.428Z,2.03
2022-12-25T08:37:39.615Z,2.40
2022-12-25T08:40:09.251Z,2.20
2022-12-25T08:42:40.489Z,2.40
2022-12-25T08:45:09.769Z,2.40
2022-12-25T08:47:38.345Z,2.30
2022-12-25T08:50:10.170Z,2.00
2022-12-25T08:52:38.462Z,2.27
2022-12-25T08:55:08.305Z,2.60
2022-12-25T08:57:45.994Z,2.70
2022-12-25T09:00:15.000Z,2.60
2022-12-25T09:02:43.790Z,2.73
2022-12-25T09:05:14.846Z,2.93
2022-12-25T09:07:52.408Z,3.30
2022-12-25T09:10:21.159Z,3.90
2022-12-25T09:12:52.064Z,2.70
2022-12-25T09:15:21.113Z,1.97
2022-12-25T09:17:49.115Z,2.43
2022-12-25T09:20:19.239Z,2.53
2022-12-25T09:22:49.131Z,2.60
2022-12-25T09:25:21.571Z,2.80
2022-12-25T09:27:49.823Z,2.23
2022-12-25T09:30:25.614Z,2.80
2022-12-25T09:32:53.847Z,2.50
2022-12-25T09:35:23.250Z,2.50
2022-12-25T09:37:51.667Z,2.20
2022-12-25T09:40:23.472Z,2.63
2022-12-25T09:42:56.048Z,2.77
2022-12-25T09:45:30.272Z,2.10
2022-12-25T09:47:59.043Z,2.20
2022-12-25T09:50:40.963Z,2.83
2022-12-25T09:53:14.573Z,3.23
2022-12-25T09:55:49.348Z,1.73
2022-12-25T09:58:22.993Z,2.30
2022-12-25T10:01:00.800Z,1.93
2022-12-25T10:03:50.166Z,2.50
2022-12-25T10:06:30.949Z,3.00
2022-12-25T10:09:18.159Z,2.10
2022-12-25T10:12:02.308Z,2.50
2022-12-25T10:14:39.192Z,2.40
2022-12-25T10:17:26.396Z,2.00
2022-12-25T10:20:02.163Z,2.67
2022-12-25T10:22:36.952Z,2.13
2022-12-25T10:25:07.055Z,2.67
2022-12-25T10:27:38.490Z,2.40
2022-12-25T10:30:16.090Z,1.93
2022-12-25T10:32:50.139Z,1.83
2022-12-25T10:35:20.829Z,2.17
2022-12-25T10:37:55.985Z,2.43
2022-12-25T10:40:36.231Z,1.80
2022-12-25T10:43:12.526Z,1.50
2022-12-25T10:45:50.895Z,2.43
2022-12-25T10:48:28.674Z,2.10
2022-12-25T10:50:57.752Z,1.80
2022-12-25T10:53:31.037Z,2.37
2022-12-25T10:56:02.723Z,1.70
2022-12-25T10:58:32.753Z,1.67
2022-12-25T11:01:05.078Z,1.33
2022-12-25T11:03:38.206Z,2.00
2022-12-25T11:06:07.991Z,1.20
2022-12-25T11:08:39.628Z,1.20
2022-12-25T11:11:14.913Z,1.57
2022-12-25T11:13:50.447Z,1.70
2022-12-25T11:16:28.773Z,1.87
2022-12-25T11:18:59.701Z,1.80
2022-12-25T11:21:30.476Z,1.83
2022-12-25T11:24:02.074Z,1.40
2022-12-25T11:26:36.822Z,1.80
2022-12-25T11:29:11.610Z,2.00
2022-12-25T11:31:42.540Z,1.70
2022-12-25T11:34:29.362Z,1.60
2022-12-25T11:37:00.202Z,1.33
2022-12-25T11:39:31.750Z,1.30
2022-12-25T11:42:04.112Z,1.20
2022-12-25T11:44:39.086Z,1.43
2022-12-25T11:47:14.986Z,1.10
2022-12-25T11:49:50.328Z,1.17
2022-12-25T11:52:22.935Z,1.30
2022-12-25T11:54:58.488Z,1.33
2022-12-25T11:57:32.579Z,1.10
2022-12-25T12:00:07.026Z,1.20
2022-12-25T12:02:43.139Z,1.20
2022-12-25T12:05:21.664Z,1.60
2022-12-25T12:08:00.032Z,1.03
2022-12-25T12:10:38.680Z,1.10
2022-12-25T12:13:22.197Z,0.90
2022-12-25T12:15:54.434Z,1.20
2022-12-25T12:18:29.874Z,1.17
2022-12-25T12:21:10.901Z,1.30
2022-12-25T12:23:51.670Z,1.90
2022-12-25T12:26:22.861Z,1.57
2022-12-25T12:28:53.358Z,1.60
2022-12-25T12:31:22.470Z,1.67
2022-12-25T12:33:55.712Z,1.57
2022-12-25T12:36:35.596Z,1.20
2022-12-25T12:39:06.837Z,1.40
2022-12-25T12:41:47.167Z,1.90
2022-12-25T12:44:18.416Z,1.53
2022-12-25T12:46:55.320Z,1.80
2022-12-25T12:49:25.597Z,1.70
2022-12-25T12:52:08.023Z,1.60
2022-12-25T12:55:01.998Z,1.53
2022-12-25T12:57:35.754Z,1.83
2022-12-25T13:00:10.084Z,1.50
2022-12-25T13:03:18.924Z,1.80
2022-12-25T13:05:51.846Z,2.00
2022-12-25T13:08:32.225Z,2.37
2022-12-25T13:11:14.166Z,1.60
2022-12-25T13:13:46.344Z,2.63
2022-12-25T13:16:23.237Z,1.60
2022-12-25T13:18:55.707Z,2.00
2022-12-25T13:21:26.396Z,2.50
2022-12-25T13:23:59.752Z,2.20
2022-12-25T13:26:29.351Z,2.13
2022-12-25T13:29:00.403Z,2.40
2022-12-25T13:31:32.334Z,2.50
2022-12-25T13:34:04.652Z,2.40
2022-12-25T13:36:44.492Z,2.90
2022-12-25T13:39:19.710Z,3.13
2022-12-25T13:42:10.372Z,3.27
2022-12-25T13:44:46.098Z,3.83
2022-12-25T13:47:21.150Z,4.10
2022-12-25T13:49:50.811Z,3.80
2022-12-25T13:52:23.573Z,3.33
2022-12-25T13:54:57.443Z,4.93
2022-12-25T13:57:31.358Z,6.07
2022-12-25T14:00:09.871Z,5.30
2022-12-25T14:02:39.174Z,4.67
2022-12-25T14:05:25.429Z,6.80
2022-12-25T14:07:54.414Z,5.60
2022-12-25T14:10:24.647Z,5.07
2022-12-25T14:13:00.358Z,4.77
2022-12-25T14:15:34.099Z,4.60
2022-12-25T14:18:03.336Z,5.00
2022-12-25T14:20:35.711Z,4.70
2022-12-25T14:23:06.103Z,3.80
2022-12-25T14:25:38.299Z,3.87
2022-12-25T14:28:11.233Z,4.80
2022-12-25T14:30:43.684Z,5.07
2022-12-25T14:33:16.229Z,5.03
2022-12-25T14:35:45.814Z,4.57
2022-12-25T14:38:32.341Z,4.30
2022-12-25T14:41:02.726Z,10.60
2022-12-25T14:43:32.250Z,8.70
2022-12-25T14:46:14.029Z,4.90
2022-12-25T14:48:45.112Z,4.37
2022-12-25T14:51:18.830Z,4.00
2022-12-25T14:53:50.064Z,5.87
2022-12-25T14:56:20.258Z,4.77
2022-12-25T14:58:51.800Z,5.30
2022-12-25T15:01:26.503Z,6.30
2022-12-25T15:04:06.233Z,4.70
2022-12-25T15:06:42.254Z,4.23
2022-12-25T15:09:18.896Z,4.20
2022-12-25T15:11:49.089Z,4.70
2022-12-25T15:14:23.090Z,5.30
2022-12-25T15:16:57.460Z,5.10
2022-12-25T15:19:36.958Z,8.40
2022-12-25T15:22:10.222Z,5.50
2022-12-25T15:24:38.331Z,4.50
2022-12-25T15:27:16.296Z,5.43
2022-12-25T15:32:38.169Z,6.07
2022-12-25T15:35:10.249Z,5.77
2022-12-25T15:37:43.996Z,5.30
2022-12-25T15:40:14.863Z,5.27
2022-12-25T15:42:44.774Z,5.30
2022-12-25T15:45:21.329Z,4.80
2022-12-25T15:47:53.200Z,3.90
2022-12-25T15:50:22.446Z,5.13
2022-12-25T15:52:51.409Z,4.67
2022-12-25T15:55:19.751Z,5.13
2022-12-25T15:57:48.586Z,5.33
2022-12-25T16:00:23.623Z,4.13
2022-12-25T16:02:53.633Z,4.47
2022-12-25T16:05:23.289Z,4.63
2022-12-25T16:07:54.187Z,4.20
2022-12-25T16:10:23.195Z,4.60
2022-12-25T16:12:51.269Z,4.30
2022-12-25T16:15:22.561Z,4.10
2022-12-25T16:17:52.953Z,5.07
2022-12-25T16:20:22.830Z,4.23
2022-12-25T16:22:50.861Z,4.47
2022-12-25T16:25:20.567Z,4.60
2022-12-25T16:27:49.417Z,4.87
2022-12-25T16:30:19.371Z,3.90
2022-12-25T16:32:50.866Z,3.67
2022-12-25T16:35:22.195Z,3.80
2022-12-25T16:37:51.641Z,4.23
2022-12-25T16:40:22.681Z,4.33
2022-12-25T16:42:50.709Z,4.43
2022-12-25T16:45:18.915Z,4.17
2022-12-25T16:47:47.465Z,4.90
2022-12-25T16:50:16.299Z,3.70
2022-12-25T16:52:44.705Z,4.03
2022-12-25T16:55:14.516Z,4.03
2022-12-25T16:57:42.524Z,4.33
2022-12-25T17:00:12.674Z,3.53
2022-12-25T17:02:51.533Z,3.30
2022-12-25T17:05:20.616Z,3.53
2022-12-25T17:07:50.262Z,4.37
2022-12-25T17:10:21.583Z,4.80
2022-12-25T17:12:49.688Z,4.30
2022-12-25T17:15:18.850Z,3.90
2022-12-25T17:17:54.023Z,4.30
2022-12-25T17:20:25.068Z,3.93
2022-12-25T17:22:53.608Z,3.23
2022-12-25T17:25:25.205Z,4.00
2022-12-25T17:27:56.614Z,3.67
2022-12-25T17:30:24.896Z,4.30
2022-12-25T17:32:58.168Z,3.87
2022-12-25T17:35:26.183Z,4.60
2022-12-25T17:37:54.185Z,3.93
2022-12-25T17:40:28.932Z,2.93
2022-12-25T17:43:06.176Z,4.50
2022-12-25T17:45:40.387Z,4.40
2022-12-25T17:48:08.421Z,4.20
2022-12-25T17:50:41.298Z,2.70
2022-12-25T17:53:10.000Z,5.03
2022-12-25T17:55:41.732Z,3.67
2022-12-25T17:58:17.626Z,3.13
2022-12-25T18:00:46.464Z,3.97
2022-12-25T18:03:14.764Z,2.80
2022-12-25T18:05:51.828Z,3.53
2022-12-25T18:08:20.655Z,4.87
2022-12-25T18:10:50.031Z,3.63
2022-12-25T18:13:24.017Z,3.10
2022-12-25T18:15:59.776Z,3.40
2022-12-25T18:18:28.279Z,3.33
2022-12-25T18:20:56.303Z,3.60
2022-12-25T18:23:25.108Z,3.90
2022-12-25T18:25:55.901Z,3.60
2022-12-25T18:28:24.416Z,3.40
2022-12-25T18:30:53.257Z,3.97
2022-12-25T18:33:21.828Z,3.60
2022-12-25T18:35:50.730Z,4.00
2022-12-25T18:38:26.392Z,3.93
2022-12-25T18:40:56.493Z,4.03
2022-12-25T18:43:53.020Z,4.20
2022-12-25T18:46:17.913Z,4.33
2022-12-25T18:48:48.287Z,4.17
2022-12-25T18:51:16.780Z,3.50
2022-12-25T18:53:45.362Z,4.50
2022-12-25T18:56:17.168Z,4.60
2022-12-25T18:58:46.132Z,3.70
2022-12-25T19:01:17.113Z,4.53
2022-12-25T19:03:46.992Z,3.70
2022-12-25T19:06:18.786Z,4.33
2022-12-25T19:08:58.116Z,4.10
2022-12-25T19:11:27.540Z,4.40
2022-12-25T19:13:57.463Z,4.53
2022-12-25T19:16:25.625Z,4.60
2022-12-25T19:18:53.816Z,4.40
2022-12-25T19:21:22.691Z,4.50
2022-12-25T19:23:51.295Z,4.50
2022-12-25T19:26:19.578Z,4.47
2022-12-25T19:28:49.930Z,4.23
2022-12-25T19:31:18.561Z,4.13
2022-12-25T19:33:47.363Z,4.37
2022-12-25T19:36:17.428Z,3.90
2022-12-25T19:38:48.356Z,3.53
2022-12-25T19:41:20.832Z,4.93
2022-12-25T19:43:52.535Z,4.13
2022-12-25T19:46:22.680Z,5.00
2022-12-25T19:48:52.355Z,4.27
2022-12-25T19:51:24.060Z,4.20
2022-12-25T19:53:54.128Z,4.30
2022-12-25T19:56:23.979Z,5.00
2022-12-25T19:58:54.407Z,5.03
2022-12-25T20:01:27.045Z,5.17
2022-12-25T20:03:56.597Z,4.87
2022-12-25T20:06:27.870Z,3.97
2022-12-25T20:08:58.761Z,4.90
2022-12-25T20:11:30.421Z,5.50
2022-12-25T20:14:00.549Z,4.80
2022-12-25T20:16:29.116Z,4.60
2022-12-25T20:18:58.546Z,5.33
2022-12-25T20:21:27.618Z,4.77
2022-12-25T20:23:58.290Z,4.40
2022-12-25T20:26:31.624Z,5.53
2022-12-25T20:29:01.328Z,5.00
2022-12-25T20:31:31.753Z,5.87
2022-12-25T20:34:09.570Z,5.43
2022-12-25T20:36:38.483Z,6.63
2022-12-25T20:39:10.222Z,5.47
2022-12-25T20:41:40.722Z,5.80
2022-12-25T20:44:10.723Z,6.40
2022-12-25T20:46:39.121Z,4.93
2022-12-25T20:49:09.706Z,5.03
2022-12-25T20:51:40.741Z,5.83
2022-12-25T20:54:09.986Z,5.40
2022-12-25T20:56:38.730Z,6.23
2022-12-25T20:59:07.204Z,5.37
2022-12-25T21:01:37.149Z,5.50
2022-12-25T21:04:05.593Z,5.60
2022-12-25T21:06:33.581Z,6.07
2022-12-25T21:09:02.184Z,6.10
2022-12-25T21:11:31.271Z,5.00
2022-12-25T21:14:00.486Z,6.10
2022-12-25T21:16:28.667Z,5.67
2022-12-25T21:19:03.971Z,4.83
2022-12-25T21:21:32.438Z,5.70
2022-12-25T21:24:00.771Z,5.50
2022-12-25T21:26:31.329Z,5.77
2022-12-25T21:29:02.091Z,4.83
2022-12-25T21:31:56.358Z,5.20
2022-12-25T21:34:25.448Z,4.90
2022-12-25T21:36:53.566Z,5.40
2022-12-25T21:39:21.828Z,5.80
2022-12-25T21:41:50.175Z,7.17
2022-12-25T21:44:18.570Z,5.63
2022-12-25T21:46:46.649Z,5.80
2022-12-25T21:49:35.031Z,6.00
2022-12-25T21:52:13.669Z,6.67
2022-12-25T21:54:41.790Z,6.80
2022-12-25T21:57:12.129Z,6.97
2022-12-25T21:59:49.061Z,6.93
2022-12-25T22:02:17.419Z,6.83
2022-12-25T22:04:45.747Z,5.57
2022-12-25T22:07:17.360Z,5.50
2022-12-25T22:09:49.440Z,5.80
2022-12-25T22:12:38.014Z,8.10
2022-12-25T22:15:09.808Z,6.97
2022-12-25T22:17:59.262Z,7.63
2022-12-25T22:20:31.531Z,6.73
2022-12-25T22:23:01.001Z,7.10
2022-12-25T22:25:31.836Z,6.57
2022-12-25T22:28:01.228Z,4.87
2022-12-25T22:30:32.228Z,4.57
2022-12-25T22:33:00.390Z,4.20
2022-12-25T22:35:28.429Z,4.10
2022-12-25T22:37:57.333Z,3.33
2022-12-25T22:40:29.183Z,3.50
2022-12-25T22:43:05.834Z,3.37
2022-12-25T22:45:36.509Z,3.43
2022-12-25T22:48:05.793Z,3.10
2022-12-25T22:50:33.760Z,2.30
2022-12-25T22:53:02.189Z,2.43
2022-12-25T22:55:39.663Z,3.50
2022-12-25T22:58:08.630Z,3.00
2022-12-25T23:00:44.326Z,2.23
2022-12-25T23:03:14.746Z,2.43
2022-12-25T23:05:46.774Z,2.40
2022-12-25T23:08:17.417Z,2.53
2022-12-25T23:10:49.691Z,2.27
2022-12-25T23:13:36.500Z,2.00
2022-12-25T23:16:05.406Z,1.93
2022-12-25T23:18:53.362Z,1.97
2022-12-25T23:21:38.758Z,2.00
2022-12-25T23:24:26.789Z,1.57
2022-12-25T23:26:59.603Z,1.40
2022-12-25T23:29:41.667Z,1.20
2022-12-25T23:32:13.393Z,1.47
2022-12-25T23:34:46.566Z,1.50
2022-12-25T23:37:15.517Z,1.20
2022-12-25T23:39:44.260Z,1.50
2022-12-25T23:42:18.606Z,1.50
2022-12-25T23:44:54.168Z,1.60
2022-12-25T23:47:23.083Z,1.50
2022-12-25T23:49:51.518Z,1.20
2022-12-25T23:52:19.833Z,1.60
2022-12-25T23:54:50.535Z,1.63
2022-12-25T23:57:20.514Z,1.80
2022-12-25T23:59:51.280Z,1.90
